Corowa Airport, Australia

1:36 AM AEDT on December 06, 2016 (GMT +1100)
Rutherglen | | Change Station

Elev 582 ft 36.06 °S, 146.47 °E | Updated 2 seconds ago

Clear
Clear
69.6 °F
Feels Like 69.6 °F
N
0.2
Wind Variable Wind from North
Gusts 2.5 mph

Today
High -- | Low -- °F
--% Chance of Precip.
Yesterday
High -- | Low -- °F
Precip. -- in
Pressure 29.80 in
Visibility 6.2 miles
Clouds
Dew Point 59 °F
Humidity 69%
Rainfall 0.00 in
Snow Depth Not available.
5:50 AM 8:20 PM
Waxing Crescent, 32% visible
METAR YWGT 051400Z AUTO 31001KT 9999 // NCD 19/13 Q1009
Pressure 29.80 in
Visibility 6.2 miles
Clouds
Dew Point 59 °F
Humidity 69%
Rainfall 0.00 in
Snow Depth Not available.
5:50 AM 8:20 PM
Waxing Crescent, 32% visible
METAR YWGT 051400Z AUTO 31001KT 9999 // NCD 19/13 Q1009

10-Day Weather Forecast

×

Almanac

Astronomy

Dec. 06, 2016 Rise Set
Actual Time
Civil Twilight
Nautical Twilight
Astronomical Twilight
Moon
Length of Visible Light
Length of Day
Tomorrow will be .
, % of the Moon is Illuminated

Today's Extremes

Country Highs Country Lows

Community

WunderPhotos

Upload Photos

1,955,782 photos uploaded!

WunderBlog® & News

Nearby

Air Quality

  Air Quality AQ Index Pollutant
Not available.

Snow Depth

Station Depth Elevation

Earthquake Activity

City Distance Mag. Time & Date
Minimum magnitude displayed is 2.5.

Coastal Water Temperatures

Place Temperature

Stations

Nearby Weather Stations

Station Location Temp. Windchill Dew Point Humidity Wind Precip. Elev Updated Type